Terminal Aerodrome Forecast
Issued by NWS Portland, ME

Current Version | Previous Version | Text Only | Print | Product List | Glossary On
Versions: 1 2 3 4 5 6 7 8 9 10 11 12 13 14 15 16 17 18 19
000 FTUS41 KGYX 251120 TAFPWM TAF KPWM 251120Z 2512/2612 00000KT P6SM FEW200 FM251400 15006KT P6SM SKC FM260300 21002KT 4SM BR SKC FM260800 VRB03KT 3/4SM BR BKN002=

USA.gov is the U.S. government's official web portal to all federal, state and local government web resources and services.